Elkhart, IN

6:38 AM EST on February 13, 2016 (GMT -0500)
Elkhart North Point | | Change Station
CLOSE
Current Station
Personal Weather Station
Location: Elkhart, IN
Elevation: 778 ft
Nearby Weather Stations
Active Advisory: Winter Weather Advisory

Elev 778 ft 41.76 °N, 85.99 °W | Updated 3 seconds ago

Overcast
Overcast
5.4 °F
Feels Like 5 °F
N
0.0
Wind Variable Wind from NW
Gusts 0.0 mph

Today
High -- | Low -- °F
--% Chance of Precip.
Yesterday
High -- | Low -- °F
Precip. -- in
Pressure 30.50 in
Visibility 10.0 miles
Clouds Scattered Clouds 2800 ft
Mostly Cloudy 3400 ft
Mostly Cloudy 5500 ft
Windchill 5 °F
Dew Point 3 °F
Humidity 90%
Rainfall 0.00 in
Snow Depth Not available.
7:42 AM 6:14 PM
Waxing Crescent, 30% visible
METAR KGSH 131053Z AUTO 22005KT 10SM SCT028 BKN034 BKN055 M17/M19 A3044 RMK AO2 SNE07 SLP326 P0000 T11671189
Pressure 30.50 in
Visibility 10.0 miles
Clouds Scattered Clouds 2800 ft
Mostly Cloudy 3400 ft
Mostly Cloudy 5500 ft
Windchill 5 °F
Dew Point 3 °F
Humidity 90%
Rainfall 0.00 in
Snow Depth Not available.
7:42 AM 6:14 PM
Waxing Crescent, 30% visible
METAR KGSH 131053Z AUTO 22005KT 10SM SCT028 BKN034 BKN055 M17/M19 A3044 RMK AO2 SNE07 SLP326 P0000 T11671189

10-Day Weather Forecast

Almanac

Astronomy

Feb. 13, 2016 Rise Set
Actual Time
Civil Twilight
Nautical Twilight
Astronomical Twilight
Moon
Length of Visible Light
Length of Day
Tomorrow will be .
, % of the Moon is Illuminated

Today's Extremes

State Highs State Lows

Community

WunderPhotos

Upload Photos

1,892,541 photos uploaded!

WunderBlog® & News

Nearby

Air Quality

  Air Quality AQ Index Pollutant
Not available.

Snow Depth

Station Depth Elevation

Earthquake Activity

City Distance Mag. Time & Date
Minimum magnitude displayed is 2.5.

Coastal Water Temperatures

Place Temperature

Stations

Nearby Weather Stations

Station Location Temp. Windchill Dew Point Humidity Wind Precip. Elev Updated Type
                   

Watches & Warnings

Winter Weather Advisory
Issued: 2:20 AM CST Feb. 13, 2016 – National Weather Service

... Winter Weather Advisory remains in effect until 4 PM EST /3 PM
CST/ this afternoon...

Hazardous weather...

* lake effect snow showers will gradually diminish in coverage
   and intensity today.

* Areas of blowing and drifting snow is expected this morning.

* Additional accumulations of 1 to 3 inches expected.

* Wind chills as low as 5 below to 10 below zero expected this
   morning.

Impacts...

* snow covered slick roads and areas of blowing snow will result
   in hazardous driving conditions.

* Frostbite will be possible for anyone who is outside for
   prolonged periods this morning.

Precautionary/preparedness actions...

A Winter Weather Advisory for snow and blowing snow means that
visibilities will be limited due to a combination of falling and
blowing snow. Use caution when traveling... especially in open
areas.